Clinton, OK

08:39 AM CDT die 18o September, anno 2014 (GMT -0500)
Clinton Municipal | Change Station
CLOSE
Current Station
Airport
Location: Clinton,
Elevation: 1614 ft
Nearby Weather Stations

Elev 1614 ft 35.54 °N, 98.93 °W | Updated 24 minutes ago

Serena
Serena
70 °F
Feels Like 70 °F
N
0
Ventus Variabilis Ventus from Aquilo

Hodie
High -- | Low -- °F
--% Chance of Precip.
Yesterday
High -- | Low -- °F
Precip. -- in
7:20 AM 7:38 PM
Waning Crescent, 27% visible
Pressio 29.94 in
Visibilitas 10.0 milia passuum
Clouds Serena
Frigus in quo Ros apparet 64 °F
Umor 83%
Rainfall 0.00 in
Snow Depth Not available.
UV 1 out of 12
Pollen 10.20 out of 12
Air Quality Not available.
Flu Activity Not available.
METAR KCLK 181315Z AUTO 00000KT 10SM CLR 21/18 A2994 RMK AO2

More Conditions Fewer Conditions

Pressio 29.94 in
Visibilitas 10.0 milia passuum
Clouds Serena
Frigus in quo Ros apparet 64 °F
Umor 83%
Rainfall 0.00 in
Snow Depth Not available.
UV 1 out of 12
Pollen 10.20 out of 12
Air Quality Not available.
Flu Activity Not available.
METAR KCLK 181315Z AUTO 00000KT 10SM CLR 21/18 A2994 RMK AO2

More Conditions Fewer Conditions

10-Day Weather Forecast

Almanac

Astronomy

Sep. 18, 2014 Rise Set
Actual Time 7:20 AM CDT 7:38 PM CDT
Civil Twilight 6:55 AM CDT 8:03 PM CDT
Nautical Twilight 6:25 AM CDT 8:33 PM CDT
Astronomical Twilight 5:55 AM CDT 9:03 PM CDT
Moon 2:22 AM CDT 4:23 PM CDT
Length Of Visible Light 13h 08m
Length of Day
12h 17m
Tomorrow will be 2m 14s shorter.
Waning Crescent, 27% of the Moon is Illuminated
Hodie
Waning Crescent
Sep 24
New
Oct 1
First Quarter
Oct 8
Full
Oct 15
Last Quarter

Today's Extremes

State Highs State Lows

Community

WunderPhotos

Upload Photos

1,754,347 photos uploaded!

Nearby

Snow Depth

Station Depth Elevation
No new snow has been reported.

Earthquake Activity

City Distance Mag. Time & Date
Medford, Oklahoma 101 milia passuum 3.0 5:28 AM CDT
2014-09-18
Perry, Oklahoma 103 milia passuum 3.9 2:12 AM CDT
2014-09-18
Helena, Oklahoma 69 milia passuum 2.8 4:01 PM CDT
2014-09-17
Perry, Oklahoma 103 milia passuum 2.5 2:57 PM CDT
2014-09-17
Minimum magnitude displayed is 2.5.

Coastal Water Temperatures

Locus Calor
No Stations Reporting

Nearby Weather Stations